sensor_id;sensor_type;location;lat;lon;timestamp;temperature;humidity
418;DHT22;49;48.530;9.200;2023-05-21T00:01:38;20.30;49.70
418;DHT22;49;48.530;9.200;2023-05-21T00:04:05;20.00;49.70
418;DHT22;49;48.530;9.200;2023-05-21T00:06:32;20.10;49.70
418;DHT22;49;48.530;9.200;2023-05-21T00:09:00;20.00;52.10
418;DHT22;49;48.530;9.200;2023-05-21T00:11:27;20.00;51.00
418;DHT22;49;48.530;9.200;2023-05-21T00:13:55;20.00;51.30
418;DHT22;49;48.530;9.200;2023-05-21T00:16:23;20.00;50.90
418;DHT22;49;48.530;9.200;2023-05-21T00:18:50;20.10;50.40
418;DHT22;49;48.530;9.200;2023-05-21T00:21:19;20.00;50.50
418;DHT22;49;48.530;9.200;2023-05-21T00:23:47;19.90;51.10
418;DHT22;49;48.530;9.200;2023-05-21T00:26:14;20.00;51.70
418;DHT22;49;48.530;9.200;2023-05-21T00:28:41;19.90;51.60
418;DHT22;49;48.530;9.200;2023-05-21T00:31:08;20.00;50.70
418;DHT22;49;48.530;9.200;2023-05-21T00:33:36;19.90;51.00
418;DHT22;49;48.530;9.200;2023-05-21T00:36:03;19.90;51.80
418;DHT22;49;48.530;9.200;2023-05-21T00:38:30;19.90;51.60
418;DHT22;49;48.530;9.200;2023-05-21T00:40:59;19.90;51.60
418;DHT22;49;48.530;9.200;2023-05-21T00:43:27;19.90;52.70
418;DHT22;49;48.530;9.200;2023-05-21T00:45:54;19.90;53.00
418;DHT22;49;48.530;9.200;2023-05-21T00:48:23;19.90;52.00
418;DHT22;49;48.530;9.200;2023-05-21T00:50:52;19.80;52.70
418;DHT22;49;48.530;9.200;2023-05-21T00:53:18;19.60;53.50
418;DHT22;49;48.530;9.200;2023-05-21T00:55:46;19.60;54.80
418;DHT22;49;48.530;9.200;2023-05-21T00:58:13;19.60;55.90
418;DHT22;49;48.530;9.200;2023-05-21T01:00:42;19.50;56.50
418;DHT22;49;48.530;9.200;2023-05-21T01:03:11;19.60;56.40
418;DHT22;49;48.530;9.200;2023-05-21T01:05:39;19.70;56.10
418;DHT22;49;48.530;9.200;2023-05-21T01:08:11;19.60;55.10
418;DHT22;49;48.530;9.200;2023-05-21T01:10:39;19.50;55.60
418;DHT22;49;48.530;9.200;2023-05-21T01:13:06;19.50;56.80
418;DHT22;49;48.530;9.200;2023-05-21T01:15:33;19.50;56.50
418;DHT22;49;48.530;9.200;2023-05-21T01:18:03;19.50;56.90
418;DHT22;49;48.530;9.200;2023-05-21T01:20:30;19.50;55.70
418;DHT22;49;48.530;9.200;2023-05-21T01:22:58;19.40;56.10
418;DHT22;49;48.530;9.200;2023-05-21T01:25:26;19.40;55.90
418;DHT22;49;48.530;9.200;2023-05-21T01:27:52;19.50;56.10
418;DHT22;49;48.530;9.200;2023-05-21T01:30:21;19.40;56.10
418;DHT22;49;48.530;9.200;2023-05-21T01:32:55;19.50;55.30
418;DHT22;49;48.530;9.200;2023-05-21T01:35:26;19.50;55.60
418;DHT22;49;48.530;9.200;2023-05-21T01:38:02;19.20;57.90
418;DHT22;49;48.530;9.200;2023-05-21T01:40:34;19.10;59.40
418;DHT22;49;48.530;9.200;2023-05-21T01:43:05;19.10;58.40
418;DHT22;49;48.530;9.200;2023-05-21T01:45:33;19.00;62.00
418;DHT22;49;48.530;9.200;2023-05-21T01:48:01;19.00;62.30
418;DHT22;49;48.530;9.200;2023-05-21T01:50:30;19.00;62.00
418;DHT22;49;48.530;9.200;2023-05-21T01:52:59;19.10;62.10
418;DHT22;49;48.530;9.200;2023-05-21T01:55:28;19.10;60.70
418;DHT22;49;48.530;9.200;2023-05-21T01:57:55;19.10;61.60
418;DHT22;49;48.530;9.200;2023-05-21T02:00:24;19.20;60.30
418;DHT22;49;48.530;9.200;2023-05-21T02:02:54;19.10;60.20
418;DHT22;49;48.530;9.200;2023-05-21T02:05:21;19.00;61.30
418;DHT22;49;48.530;9.200;2023-05-21T02:07:49;19.10;61.00
418;DHT22;49;48.530;9.200;2023-05-21T02:10:18;18.90;63.20
418;DHT22;49;48.530;9.200;2023-05-21T02:12:45;18.90;64.60
418;DHT22;49;48.530;9.200;2023-05-21T02:15:12;18.70;68.00
418;DHT22;49;48.530;9.200;2023-05-21T02:17:42;18.60;71.20
418;DHT22;49;48.530;9.200;2023-05-21T02:20:10;18.70;71.30
418;DHT22;49;48.530;9.200;2023-05-21T02:22:37;18.70;70.40
418;DHT22;49;48.530;9.200;2023-05-21T02:25:06;18.80;69.90
418;DHT22;49;48.530;9.200;2023-05-21T02:27:34;18.70;71.30
418;DHT22;49;48.530;9.200;2023-05-21T02:30:02;18.60;71.20
418;DHT22;49;48.530;9.200;2023-05-21T02:32:29;18.60;72.20
418;DHT22;49;48.530;9.200;2023-05-21T02:34:57;18.70;69.10
418;DHT22;49;48.530;9.200;2023-05-21T02:37:24;18.70;70.90
418;DHT22;49;48.530;9.200;2023-05-21T02:39:52;18.70;70.00
418;DHT22;49;48.530;9.200;2023-05-21T02:42:20;18.70;70.50
418;DHT22;49;48.530;9.200;2023-05-21T02:44:48;18.60;69.70
418;DHT22;49;48.530;9.200;2023-05-21T02:47:15;18.60;70.80
418;DHT22;49;48.530;9.200;2023-05-21T02:49:42;18.60;70.40
418;DHT22;49;48.530;9.200;2023-05-21T02:52:09;18.60;69.50
418;DHT22;49;48.530;9.200;2023-05-21T02:54:36;18.60;71.20
418;DHT22;49;48.530;9.200;2023-05-21T02:57:03;18.40;73.00
418;DHT22;49;48.530;9.200;2023-05-21T02:59:30;18.40;73.50
418;DHT22;49;48.530;9.200;2023-05-21T03:01:58;18.30;72.10
418;DHT22;49;48.530;9.200;2023-05-21T03:04:25;18.10;75.30
418;DHT22;49;48.530;9.200;2023-05-21T03:06:54;18.10;75.80
418;DHT22;49;48.530;9.200;2023-05-21T03:09:21;18.20;74.70
418;DHT22;49;48.530;9.200;2023-05-21T03:11:48;18.30;74.30
418;DHT22;49;48.530;9.200;2023-05-21T03:14:15;18.30;74.30
418;DHT22;49;48.530;9.200;2023-05-21T03:16:42;18.30;73.70
418;DHT22;49;48.530;9.200;2023-05-21T03:19:12;18.30;73.00
418;DHT22;49;48.530;9.200;2023-05-21T03:21:39;18.30;73.20
418;DHT22;49;48.530;9.200;2023-05-21T03:24:06;18.30;73.30
418;DHT22;49;48.530;9.200;2023-05-21T03:26:34;18.30;72.30
418;DHT22;49;48.530;9.200;2023-05-21T03:29:01;18.20;73.20
418;DHT22;49;48.530;9.200;2023-05-21T03:31:28;18.30;73.40
418;DHT22;49;48.530;9.200;2023-05-21T03:33:55;18.30;72.70
418;DHT22;49;48.530;9.200;2023-05-21T03:36:23;18.20;70.10
418;DHT22;49;48.530;9.200;2023-05-21T03:38:50;18.40;71.00
418;DHT22;49;48.530;9.200;2023-05-21T03:41:17;18.40;70.00
418;DHT22;49;48.530;9.200;2023-05-21T03:43:44;18.40;70.80
418;DHT22;49;48.530;9.200;2023-05-21T03:46:11;18.30;70.90
418;DHT22;49;48.530;9.200;2023-05-21T03:48:38;18.10;71.40
418;DHT22;49;48.530;9.200;2023-05-21T03:51:05;18.00;74.60
418;DHT22;49;48.530;9.200;2023-05-21T03:53:34;17.80;77.50
418;DHT22;49;48.530;9.200;2023-05-21T03:56:01;17.90;78.80
418;DHT22;49;48.530;9.200;2023-05-21T03:58:28;18.00;78.00
418;DHT22;49;48.530;9.200;2023-05-21T04:00:56;18.00;77.90
418;DHT22;49;48.530;9.200;2023-05-21T04:03:23;18.00;77.20
418;DHT22;49;48.530;9.200;2023-05-21T04:05:49;18.00;76.50
418;DHT22;49;48.530;9.200;2023-05-21T04:08:17;18.10;75.70
418;DHT22;49;48.530;9.200;2023-05-21T04:10:45;18.00;76.60
418;DHT22;49;48.530;9.200;2023-05-21T04:13:12;18.10;75.20
418;DHT22;49;48.530;9.200;2023-05-21T04:15:39;18.00;75.60
418;DHT22;49;48.530;9.200;2023-05-21T04:18:08;17.80;76.40
418;DHT22;49;48.530;9.200;2023-05-21T04:20:35;17.80;79.80
418;DHT22;49;48.530;9.200;2023-05-21T04:23:02;17.90;80.10
418;DHT22;49;48.530;9.200;2023-05-21T04:25:29;18.00;77.90
418;DHT22;49;48.530;9.200;2023-05-21T04:27:57;18.10;77.10
418;DHT22;49;48.530;9.200;2023-05-21T04:30:24;18.10;76.20
418;DHT22;49;48.530;9.200;2023-05-21T04:32:51;18.10;77.50
418;DHT22;49;48.530;9.200;2023-05-21T04:35:19;18.10;77.60
418;DHT22;49;48.530;9.200;2023-05-21T04:37:46;18.20;78.50
418;DHT22;49;48.530;9.200;2023-05-21T04:40:13;18.20;79.70
418;DHT22;49;48.530;9.200;2023-05-21T04:42:43;18.30;78.30
418;DHT22;49;48.530;9.200;2023-05-21T04:45:12;18.40;78.20
418;DHT22;49;48.530;9.200;2023-05-21T04:47:41;18.40;76.90
418;DHT22;49;48.530;9.200;2023-05-21T04:50:08;18.30;79.00
418;DHT22;49;48.530;9.200;2023-05-21T04:52:37;18.40;78.80
418;DHT22;49;48.530;9.200;2023-05-21T04:55:05;18.40;78.40
418;DHT22;49;48.530;9.200;2023-05-21T04:57:32;18.60;76.90
418;DHT22;49;48.530;9.200;2023-05-21T05:00:00;18.70;75.60
418;DHT22;49;48.530;9.200;2023-05-21T05:02:29;18.80;74.10
418;DHT22;49;48.530;9.200;2023-05-21T05:04:56;18.90;74.20
418;DHT22;49;48.530;9.200;2023-05-21T05:07:24;18.90;73.80
418;DHT22;49;48.530;9.200;2023-05-21T05:09:51;18.80;74.10
418;DHT22;49;48.530;9.200;2023-05-21T05:12:18;18.90;73.10
418;DHT22;49;48.530;9.200;2023-05-21T05:14:44;19.10;71.80
418;DHT22;49;48.530;9.200;2023-05-21T05:17:11;19.20;70.60
418;DHT22;49;48.530;9.200;2023-05-21T05:19:41;19.20;69.00
418;DHT22;49;48.530;9.200;2023-05-21T05:22:09;19.10;70.70
418;DHT22;49;48.530;9.200;2023-05-21T05:24:36;19.20;70.10
418;DHT22;49;48.530;9.200;2023-05-21T05:27:03;19.20;70.00
418;DHT22;49;48.530;9.200;2023-05-21T05:29:30;19.50;67.70
418;DHT22;49;48.530;9.200;2023-05-21T05:31:57;19.60;67.30
418;DHT22;49;48.530;9.200;2023-05-21T05:34:24;19.60;66.40
418;DHT22;49;48.530;9.200;2023-05-21T05:36:52;19.60;67.00
418;DHT22;49;48.530;9.200;2023-05-21T05:39:19;19.60;66.40
418;DHT22;49;48.530;9.200;2023-05-21T05:41:46;19.60;67.30
418;DHT22;49;48.530;9.200;2023-05-21T05:44:13;19.80;67.40
418;DHT22;49;48.530;9.200;2023-05-21T05:46:40;19.70;66.20
418;DHT22;49;48.530;9.200;2023-05-21T05:49:07;19.40;67.80
418;DHT22;49;48.530;9.200;2023-05-21T05:51:34;19.20;70.70
418;DHT22;49;48.530;9.200;2023-05-21T05:54:03;19.30;69.50
418;DHT22;49;48.530;9.200;2023-05-21T05:56:30;19.10;70.60
418;DHT22;49;48.530;9.200;2023-05-21T05:58:57;19.00;72.70
418;DHT22;49;48.530;9.200;2023-05-21T06:01:24;19.20;72.40
418;DHT22;49;48.530;9.200;2023-05-21T06:03:51;19.10;72.60
418;DHT22;49;48.530;9.200;2023-05-21T06:06:18;19.10;73.90
418;DHT22;49;48.530;9.200;2023-05-21T06:08:45;19.40;73.10
418;DHT22;49;48.530;9.200;2023-05-21T06:11:13;19.70;70.50
418;DHT22;49;48.530;9.200;2023-05-21T06:13:43;19.60;70.00
418;DHT22;49;48.530;9.200;2023-05-21T06:16:10;19.60;70.20
418;DHT22;49;48.530;9.200;2023-05-21T06:18:37;19.70;69.70
418;DHT22;49;48.530;9.200;2023-05-21T06:21:04;19.70;70.50
418;DHT22;49;48.530;9.200;2023-05-21T06:23:31;20.00;68.30
418;DHT22;49;48.530;9.200;2023-05-21T06:25:59;20.20;69.10
418;DHT22;49;48.530;9.200;2023-05-21T06:28:28;20.70;66.80
418;DHT22;49;48.530;9.200;2023-05-21T06:30:55;21.10;62.80
418;DHT22;49;48.530;9.200;2023-05-21T06:33:22;21.60;60.10
418;DHT22;49;48.530;9.200;2023-05-21T06:35:49;22.10;57.10
418;DHT22;49;48.530;9.200;2023-05-21T06:38:16;22.50;58.00
418;DHT22;49;48.530;9.200;2023-05-21T06:40:43;22.80;50.80
418;DHT22;49;48.530;9.200;2023-05-21T06:43:12;23.50;50.30
418;DHT22;49;48.530;9.200;2023-05-21T06:45:40;24.00;46.70
418;DHT22;49;48.530;9.200;2023-05-21T06:48:07;24.30;42.40
418;DHT22;49;48.530;9.200;2023-05-21T06:50:34;24.70;42.50
418;DHT22;49;48.530;9.200;2023-05-21T06:53:01;25.30;40.60
418;DHT22;49;48.530;9.200;2023-05-21T06:55:28;25.60;38.50
418;DHT22;49;48.530;9.200;2023-05-21T06:57:56;25.90;35.90
418;DHT22;49;48.530;9.200;2023-05-21T07:00:23;26.40;34.00
418;DHT22;49;48.530;9.200;2023-05-21T07:02:52;26.40;31.40
418;DHT22;49;48.530;9.200;2023-05-21T07:05:19;25.80;34.30
418;DHT22;49;48.530;9.200;2023-05-21T07:07:46;25.80;33.10
418;DHT22;49;48.530;9.200;2023-05-21T07:10:13;26.10;35.10
418;DHT22;49;48.530;9.200;2023-05-21T07:12:40;26.90;29.80
418;DHT22;49;48.530;9.200;2023-05-21T07:15:07;26.90;30.30
418;DHT22;49;48.530;9.200;2023-05-21T07:17:34;27.60;28.90
418;DHT22;49;48.530;9.200;2023-05-21T07:20:04;28.10;27.20
418;DHT22;49;48.530;9.200;2023-05-21T07:22:32;28.10;26.30
418;DHT22;49;48.530;9.200;2023-05-21T07:24:59;28.40;25.20
418;DHT22;49;48.530;9.200;2023-05-21T07:27:26;28.70;26.00
418;DHT22;49;48.530;9.200;2023-05-21T07:29:53;28.50;26.90
418;DHT22;49;48.530;9.200;2023-05-21T07:32:20;29.50;25.30
418;DHT22;49;48.530;9.200;2023-05-21T07:34:46;30.50;21.60
418;DHT22;49;48.530;9.200;2023-05-21T07:37:15;30.80;21.20
418;DHT22;49;48.530;9.200;2023-05-21T07:39:42;30.70;20.00
418;DHT22;49;48.530;9.200;2023-05-21T07:42:09;30.80;21.20
418;DHT22;49;48.530;9.200;2023-05-21T07:44:35;31.50;20.10
418;DHT22;49;48.530;9.200;2023-05-21T07:47:03;31.90;19.00
418;DHT22;49;48.530;9.200;2023-05-21T07:49:30;32.30;18.80
418;DHT22;49;48.530;9.200;2023-05-21T07:51:56;33.00;17.80
418;DHT22;49;48.530;9.200;2023-05-21T07:54:25;33.40;16.90
418;DHT22;49;48.530;9.200;2023-05-21T07:56:52;33.60;15.20
418;DHT22;49;48.530;9.200;2023-05-21T07:59:18;33.40;14.70
418;DHT22;49;48.530;9.200;2023-05-21T08:01:46;32.80;15.10
418;DHT22;49;48.530;9.200;2023-05-21T08:04:13;33.40;13.90
418;DHT22;49;48.530;9.200;2023-05-21T08:06:40;33.20;14.00
418;DHT22;49;48.530;9.200;2023-05-21T08:09:07;33.10;13.60
418;DHT22;49;48.530;9.200;2023-05-21T08:11:35;32.90;14.40
418;DHT22;49;48.530;9.200;2023-05-21T08:14:02;33.40;14.20
418;DHT22;49;48.530;9.200;2023-05-21T08:16:29;33.70;13.70
418;DHT22;49;48.530;9.200;2023-05-21T08:18:56;34.10;13.20
418;DHT22;49;48.530;9.200;2023-05-21T08:21:23;34.20;12.20
418;DHT22;49;48.530;9.200;2023-05-21T08:23:51;34.20;11.60
418;DHT22;49;48.530;9.200;2023-05-21T08:26:18;33.50;12.20
418;DHT22;49;48.530;9.200;2023-05-21T08:28:47;32.70;13.00
418;DHT22;49;48.530;9.200;2023-05-21T08:31:14;32.80;13.00
418;DHT22;49;48.530;9.200;2023-05-21T08:33:49;32.10;14.70
418;DHT22;49;48.530;9.200;2023-05-21T08:36:16;32.50;13.60
418;DHT22;49;48.530;9.200;2023-05-21T08:38:43;33.40;12.20
418;DHT22;49;48.530;9.200;2023-05-21T08:41:11;33.10;12.80
418;DHT22;49;48.530;9.200;2023-05-21T08:43:38;32.90;12.70
418;DHT22;49;48.530;9.200;2023-05-21T08:46:07;33.20;12.90
418;DHT22;49;48.530;9.200;2023-05-21T08:48:36;33.00;12.20
418;DHT22;49;48.530;9.200;2023-05-21T08:51:03;32.60;13.10
418;DHT22;49;48.530;9.200;2023-05-21T08:53:31;32.20;13.90
418;DHT22;49;48.530;9.200;2023-05-21T08:55:59;31.60;15.70
418;DHT22;49;48.530;9.200;2023-05-21T08:58:28;31.50;16.20
418;DHT22;49;48.530;9.200;2023-05-21T09:00:55;31.70;15.60
418;DHT22;49;48.530;9.200;2023-05-21T09:03:25;32.60;14.50
418;DHT22;49;48.530;9.200;2023-05-21T09:05:53;33.00;12.80
418;DHT22;49;48.530;9.200;2023-05-21T09:08:26;33.20;12.70
418;DHT22;49;48.530;9.200;2023-05-21T09:10:53;32.00;14.20
418;DHT22;49;48.530;9.200;2023-05-21T09:13:20;31.80;14.90
418;DHT22;49;48.530;9.200;2023-05-21T09:15:47;31.40;15.60
418;DHT22;49;48.530;9.200;2023-05-21T09:18:16;31.40;16.00
418;DHT22;49;48.530;9.200;2023-05-21T09:20:44;31.20;16.10
418;DHT22;49;48.530;9.200;2023-05-21T09:23:11;30.60;17.20
418;DHT22;49;48.530;9.200;2023-05-21T09:25:45;30.60;17.70
418;DHT22;49;48.530;9.200;2023-05-21T09:28:12;29.30;20.10
418;DHT22;49;48.530;9.200;2023-05-21T09:30:43;29.80;18.80
418;DHT22;49;48.530;9.200;2023-05-21T09:33:11;30.50;18.30
418;DHT22;49;48.530;9.200;2023-05-21T09:35:45;30.80;16.90
418;DHT22;49;48.530;9.200;2023-05-21T09:38:12;30.00;18.00
418;DHT22;49;48.530;9.200;2023-05-21T09:40:43;30.10;18.10
418;DHT22;49;48.530;9.200;2023-05-21T09:43:13;29.30;19.10
418;DHT22;49;48.530;9.200;2023-05-21T09:45:49;29.60;19.20
418;DHT22;49;48.530;9.200;2023-05-21T09:48:22;29.80;19.00
418;DHT22;49;48.530;9.200;2023-05-21T09:51:14;30.40;18.20
418;DHT22;49;48.530;9.200;2023-05-21T09:53:49;30.10;18.10
418;DHT22;49;48.530;9.200;2023-05-21T09:56:19;29.30;19.40
418;DHT22;49;48.530;9.200;2023-05-21T09:58:51;28.90;21.40
418;DHT22;49;48.530;9.200;2023-05-21T10:01:22;28.80;21.20
418;DHT22;49;48.530;9.200;2023-05-21T10:03:52;28.40;21.60
418;DHT22;49;48.530;9.200;2023-05-21T10:06:23;28.30;21.80
418;DHT22;49;48.530;9.200;2023-05-21T10:08:52;28.30;22.70
418;DHT22;49;48.530;9.200;2023-05-21T10:11:21;28.70;21.10
418;DHT22;49;48.530;9.200;2023-05-21T10:13:52;27.60;22.90
418;DHT22;49;48.530;9.200;2023-05-21T10:16:21;27.30;24.50
418;DHT22;49;48.530;9.200;2023-05-21T10:18:48;27.70;22.90
418;DHT22;49;48.530;9.200;2023-05-21T10:21:18;27.40;24.00
418;DHT22;49;48.530;9.200;2023-05-21T10:23:48;27.50;24.00
418;DHT22;49;48.530;9.200;2023-05-21T10:26:17;27.40;24.20
418;DHT22;49;48.530;9.200;2023-05-21T10:28:46;27.20;23.60
418;DHT22;49;48.530;9.200;2023-05-21T10:31:13;27.20;23.60
418;DHT22;49;48.530;9.200;2023-05-21T10:33:42;27.30;23.70
418;DHT22;49;48.530;9.200;2023-05-21T10:36:10;27.00;24.50
418;DHT22;49;48.530;9.200;2023-05-21T10:38:37;26.90;25.60
418;DHT22;49;48.530;9.200;2023-05-21T10:41:06;26.80;25.20
418;DHT22;49;48.530;9.200;2023-05-21T10:43:43;27.10;25.40
418;DHT22;49;48.530;9.200;2023-05-21T10:46:24;27.60;24.10
418;DHT22;49;48.530;9.200;2023-05-21T10:51:59;26.50;26.40
418;DHT22;49;48.530;9.200;2023-05-21T10:54:54;27.00;26.00
418;DHT22;49;48.530;9.200;2023-05-21T10:57:45;27.70;25.00
418;DHT22;49;48.530;9.200;2023-05-21T11:00:17;28.10;23.20
418;DHT22;49;48.530;9.200;2023-05-21T11:02:45;28.60;22.70
418;DHT22;49;48.530;9.200;2023-05-21T11:05:13;28.80;21.50
418;DHT22;49;48.530;9.200;2023-05-21T11:07:52;28.30;23.30
418;DHT22;49;48.530;9.200;2023-05-21T11:10:35;28.10;22.50
418;DHT22;49;48.530;9.200;2023-05-21T11:13:14;27.80;23.00
418;DHT22;49;48.530;9.200;2023-05-21T11:16:05;27.70;22.90
418;DHT22;49;48.530;9.200;2023-05-21T11:18:58;27.80;23.30
418;DHT22;49;48.530;9.200;2023-05-21T11:21:33;27.80;22.70
418;DHT22;49;48.530;9.200;2023-05-21T11:24:04;27.90;23.60
418;DHT22;49;48.530;9.200;2023-05-21T11:26:58;28.10;23.20
418;DHT22;49;48.530;9.200;2023-05-21T11:29:39;27.80;22.50
418;DHT22;49;48.530;9.200;2023-05-21T11:32:08;27.60;23.30
418;DHT22;49;48.530;9.200;2023-05-21T11:34:39;27.70;22.90
418;DHT22;49;48.530;9.200;2023-05-21T11:37:33;28.40;21.60
418;DHT22;49;48.530;9.200;2023-05-21T11:40:21;28.10;21.00
418;DHT22;49;48.530;9.200;2023-05-21T11:42:51;27.40;22.70
418;DHT22;49;48.530;9.200;2023-05-21T11:45:21;26.80;23.00
418;DHT22;49;48.530;9.200;2023-05-21T11:47:49;26.40;24.00
418;DHT22;49;48.530;9.200;2023-05-21T11:50:18;26.00;24.30
418;DHT22;49;48.530;9.200;2023-05-21T11:52:45;26.50;24.00
418;DHT22;49;48.530;9.200;2023-05-21T11:55:12;27.10;22.60
418;DHT22;49;48.530;9.200;2023-05-21T11:57:41;27.80;21.20
418;DHT22;49;48.530;9.200;2023-05-21T12:00:13;27.10;21.80
418;DHT22;49;48.530;9.200;2023-05-21T12:02:48;26.60;23.00
418;DHT22;49;48.530;9.200;2023-05-21T12:05:15;26.90;21.80
418;DHT22;49;48.530;9.200;2023-05-21T12:07:45;26.60;22.40
418;DHT22;49;48.530;9.200;2023-05-21T12:10:14;26.90;21.10
418;DHT22;49;48.530;9.200;2023-05-21T12:12:41;26.90;20.70
418;DHT22;49;48.530;9.200;2023-05-21T12:15:09;27.20;21.30
418;DHT22;49;48.530;9.200;2023-05-21T12:17:37;27.50;19.90
418;DHT22;49;48.530;9.200;2023-05-21T12:20:07;27.50;20.00
418;DHT22;49;48.530;9.200;2023-05-21T12:22:39;27.30;20.50
418;DHT22;49;48.530;9.200;2023-05-21T12:25:07;27.10;20.60
418;DHT22;49;48.530;9.200;2023-05-21T12:27:34;27.20;21.10
418;DHT22;49;48.530;9.200;2023-05-21T12:30:02;27.30;21.00
418;DHT22;49;48.530;9.200;2023-05-21T12:32:29;26.80;20.80
418;DHT22;49;48.530;9.200;2023-05-21T12:34:56;26.70;21.90
418;DHT22;49;48.530;9.200;2023-05-21T12:37:26;27.10;21.70
418;DHT22;49;48.530;9.200;2023-05-21T12:39:58;27.50;20.90
418;DHT22;49;48.530;9.200;2023-05-21T12:42:26;27.80;19.90
418;DHT22;49;48.530;9.200;2023-05-21T12:44:55;27.50;20.20
418;DHT22;49;48.530;9.200;2023-05-21T12:47:23;27.40;20.60
418;DHT22;49;48.530;9.200;2023-05-21T12:49:55;27.80;20.10
418;DHT22;49;48.530;9.200;2023-05-21T12:52:25;27.70;20.00
418;DHT22;49;48.530;9.200;2023-05-21T12:54:53;27.70;19.90
418;DHT22;49;48.530;9.200;2023-05-21T12:57:23;28.00;19.90
418;DHT22;49;48.530;9.200;2023-05-21T12:59:51;28.30;19.50
418;DHT22;49;48.530;9.200;2023-05-21T13:02:22;28.80;18.30
418;DHT22;49;48.530;9.200;2023-05-21T13:04:54;28.90;18.00
418;DHT22;49;48.530;9.200;2023-05-21T13:07:21;29.30;17.70
418;DHT22;49;48.530;9.200;2023-05-21T13:09:49;28.90;17.40
418;DHT22;49;48.530;9.200;2023-05-21T13:12:18;28.30;18.40
418;DHT22;49;48.530;9.200;2023-05-21T13:14:45;28.00;19.10
418;DHT22;49;48.530;9.200;2023-05-21T13:17:12;27.40;20.10
418;DHT22;49;48.530;9.200;2023-05-21T13:19:39;27.00;21.70
418;DHT22;49;48.530;9.200;2023-05-21T13:22:06;27.10;21.50
418;DHT22;49;48.530;9.200;2023-05-21T13:24:35;27.10;21.50
418;DHT22;49;48.530;9.200;2023-05-21T13:27:03;26.80;21.90
418;DHT22;49;48.530;9.200;2023-05-21T13:29:30;27.10;21.80
418;DHT22;49;48.530;9.200;2023-05-21T13:31:57;26.90;22.80
418;DHT22;49;48.530;9.200;2023-05-21T13:34:24;27.10;21.30
418;DHT22;49;48.530;9.200;2023-05-21T13:36:51;26.60;22.50
418;DHT22;49;48.530;9.200;2023-05-21T13:39:19;26.80;22.90
418;DHT22;49;48.530;9.200;2023-05-21T13:41:51;26.50;22.80
418;DHT22;49;48.530;9.200;2023-05-21T13:44:19;26.40;23.80
418;DHT22;49;48.530;9.200;2023-05-21T13:46:46;27.00;22.50
418;DHT22;49;48.530;9.200;2023-05-21T13:49:13;27.00;22.10
418;DHT22;49;48.530;9.200;2023-05-21T13:51:40;26.90;22.50
418;DHT22;49;48.530;9.200;2023-05-21T13:54:07;26.90;22.00
418;DHT22;49;48.530;9.200;2023-05-21T13:56:34;27.20;21.70
418;DHT22;49;48.530;9.200;2023-05-21T13:59:01;27.40;20.90
418;DHT22;49;48.530;9.200;2023-05-21T14:01:30;27.60;20.30
418;DHT22;49;48.530;9.200;2023-05-21T14:03:57;27.70;20.50
418;DHT22;49;48.530;9.200;2023-05-21T14:06:29;28.20;19.70
418;DHT22;49;48.530;9.200;2023-05-21T14:08:57;28.30;19.20
418;DHT22;49;48.530;9.200;2023-05-21T14:11:25;28.10;19.40
418;DHT22;49;48.530;9.200;2023-05-21T14:13:53;28.30;19.40
418;DHT22;49;48.530;9.200;2023-05-21T14:16:20;28.60;19.30
418;DHT22;49;48.530;9.200;2023-05-21T14:18:50;29.20;18.40
418;DHT22;49;48.530;9.200;2023-05-21T14:21:17;29.50;17.80
418;DHT22;49;48.530;9.200;2023-05-21T14:23:44;29.40;17.70
418;DHT22;49;48.530;9.200;2023-05-21T14:26:11;29.30;17.60
418;DHT22;49;48.530;9.200;2023-05-21T14:28:38;29.00;18.90
418;DHT22;49;48.530;9.200;2023-05-21T14:31:05;28.70;18.20
418;DHT22;49;48.530;9.200;2023-05-21T14:33:33;28.60;19.20
418;DHT22;49;48.530;9.200;2023-05-21T14:36:02;28.20;19.20
418;DHT22;49;48.530;9.200;2023-05-21T14:38:29;28.00;19.60
418;DHT22;49;48.530;9.200;2023-05-21T14:40:56;27.90;19.90
418;DHT22;49;48.530;9.200;2023-05-21T14:43:23;27.60;20.50
418;DHT22;49;48.530;9.200;2023-05-21T14:45:50;27.80;20.00
418;DHT22;49;48.530;9.200;2023-05-21T14:48:17;27.90;19.60
418;DHT22;49;48.530;9.200;2023-05-21T14:50:47;28.10;19.50
418;DHT22;49;48.530;9.200;2023-05-21T14:53:17;27.90;19.30
418;DHT22;49;48.530;9.200;2023-05-21T14:55:45;27.40;20.50
418;DHT22;49;48.530;9.200;2023-05-21T14:58:12;27.00;21.30
418;DHT22;49;48.530;9.200;2023-05-21T15:00:39;26.90;21.90
418;DHT22;49;48.530;9.200;2023-05-21T15:03:05;27.30;20.60
418;DHT22;49;48.530;9.200;2023-05-21T15:05:32;27.00;21.10
418;DHT22;49;48.530;9.200;2023-05-21T15:08:00;27.00;21.90
418;DHT22;49;48.530;9.200;2023-05-21T15:10:29;26.70;22.90
418;DHT22;49;48.530;9.200;2023-05-21T15:12:56;26.60;22.40
418;DHT22;49;48.530;9.200;2023-05-21T15:15:23;26.60;22.10
418;DHT22;49;48.530;9.200;2023-05-21T15:17:50;26.80;21.60
418;DHT22;49;48.530;9.200;2023-05-21T15:20:19;26.60;21.70
418;DHT22;49;48.530;9.200;2023-05-21T15:22:46;26.20;22.70
418;DHT22;49;48.530;9.200;2023-05-21T15:25:13;26.50;22.20
418;DHT22;49;48.530;9.200;2023-05-21T15:27:44;26.60;21.00
418;DHT22;49;48.530;9.200;2023-05-21T15:30:11;26.50;21.60
418;DHT22;49;48.530;9.200;2023-05-21T15:32:38;26.30;22.30
418;DHT22;49;48.530;9.200;2023-05-21T15:35:06;26.50;22.20
418;DHT22;49;48.530;9.200;2023-05-21T15:37:33;26.70;21.80
418;DHT22;49;48.530;9.200;2023-05-21T15:40:00;27.20;21.50
418;DHT22;49;48.530;9.200;2023-05-21T15:42:26;27.30;20.10
418;DHT22;49;48.530;9.200;2023-05-21T15:44:57;27.20;20.40
418;DHT22;49;48.530;9.200;2023-05-21T15:47:24;27.50;20.30
418;DHT22;49;48.530;9.200;2023-05-21T15:49:51;27.40;21.00
418;DHT22;49;48.530;9.200;2023-05-21T15:52:18;27.60;19.20
418;DHT22;49;48.530;9.200;2023-05-21T15:54:45;27.60;18.90
418;DHT22;49;48.530;9.200;2023-05-21T15:57:12;27.40;19.80
418;DHT22;49;48.530;9.200;2023-05-21T15:59:39;27.60;19.80
418;DHT22;49;48.530;9.200;2023-05-21T16:02:08;27.70;19.30
418;DHT22;49;48.530;9.200;2023-05-21T16:04:35;27.80;19.00
418;DHT22;49;48.530;9.200;2023-05-21T16:07:02;28.00;19.10
418;DHT22;49;48.530;9.200;2023-05-21T16:09:29;28.20;18.90
418;DHT22;49;48.530;9.200;2023-05-21T16:11:55;28.30;18.30
418;DHT22;49;48.530;9.200;2023-05-21T16:14:23;28.30;18.20
418;DHT22;49;48.530;9.200;2023-05-21T16:16:50;28.30;18.40
418;DHT22;49;48.530;9.200;2023-05-21T16:19:18;28.30;18.40
418;DHT22;49;48.530;9.200;2023-05-21T16:21:45;28.00;18.60
418;DHT22;49;48.530;9.200;2023-05-21T16:24:12;27.10;20.40
418;DHT22;49;48.530;9.200;2023-05-21T16:26:39;27.10;20.90
418;DHT22;49;48.530;9.200;2023-05-21T16:29:06;26.90;21.40
418;DHT22;49;48.530;9.200;2023-05-21T16:31:33;26.80;22.20
418;DHT22;49;48.530;9.200;2023-05-21T16:34:02;26.30;23.40
418;DHT22;49;48.530;9.200;2023-05-21T16:36:30;26.20;23.30
418;DHT22;49;48.530;9.200;2023-05-21T16:38:57;25.90;24.40
418;DHT22;49;48.530;9.200;2023-05-21T16:41:24;26.00;23.80
418;DHT22;49;48.530;9.200;2023-05-21T16:43:51;26.00;24.30
418;DHT22;49;48.530;9.200;2023-05-21T16:46:18;26.30;24.50
418;DHT22;49;48.530;9.200;2023-05-21T16:48:46;26.40;23.70
418;DHT22;49;48.530;9.200;2023-05-21T16:51:12;26.40;23.50
418;DHT22;49;48.530;9.200;2023-05-21T16:53:41;26.70;23.00
418;DHT22;49;48.530;9.200;2023-05-21T16:56:08;26.90;22.50
418;DHT22;49;48.530;9.200;2023-05-21T16:58:35;27.20;22.20
418;DHT22;49;48.530;9.200;2023-05-21T17:01:02;27.40;22.20
418;DHT22;49;48.530;9.200;2023-05-21T17:03:29;27.60;21.00